createdAt,value
2018-12-08T00:02:17.494Z,84.70
2018-12-08T00:04:45.658Z,85.60
2018-12-08T00:07:13.220Z,84.90
2018-12-08T00:09:40.754Z,85.00
2018-12-08T00:12:08.192Z,85.10
2018-12-08T00:14:35.584Z,85.00
2018-12-08T00:17:03.201Z,85.10
2018-12-08T00:19:30.740Z,85.00
2018-12-08T00:21:58.494Z,84.90
2018-12-08T00:24:26.007Z,85.00
2018-12-08T00:26:54.312Z,85.00
2018-12-08T00:29:21.983Z,85.00
2018-12-08T00:31:49.474Z,85.00
2018-12-08T00:34:16.983Z,84.60
2018-12-08T00:36:44.585Z,84.60
2018-12-08T00:39:12.230Z,84.40
2018-12-08T00:41:39.952Z,84.40
2018-12-08T00:44:07.500Z,84.30
2018-12-08T00:46:35.223Z,84.30
2018-12-08T00:49:02.951Z,84.40
2018-12-08T00:51:30.584Z,84.30
2018-12-08T00:54:03.969Z,84.30
2018-12-08T00:56:31.591Z,84.30
2018-12-08T00:58:59.099Z,84.20
2018-12-08T01:01:26.714Z,84.10
2018-12-08T01:03:54.275Z,83.80
2018-12-08T01:06:22.057Z,83.90
2018-12-08T01:08:49.609Z,84.00
2018-12-08T01:11:17.122Z,84.20
2018-12-08T01:13:45.329Z,85.30
2018-12-08T01:16:12.799Z,84.60
2018-12-08T01:18:40.293Z,84.60
2018-12-08T01:21:07.849Z,84.60
2018-12-08T01:23:35.413Z,84.50
2018-12-08T01:26:03.275Z,84.50
2018-12-08T01:28:31.009Z,84.10
2018-12-08T01:30:58.527Z,83.70
2018-12-08T01:33:26.007Z,83.60
2018-12-08T01:35:53.491Z,83.30
2018-12-08T01:38:21.149Z,82.90
2018-12-08T01:40:48.715Z,82.60
2018-12-08T01:43:16.363Z,82.10
2018-12-08T01:45:43.894Z,82.20
2018-12-08T01:48:11.453Z,82.20
2018-12-08T01:50:39.190Z,82.30
2018-12-08T01:53:06.711Z,82.50
2018-12-08T01:55:34.235Z,82.80
2018-12-08T01:58:01.772Z,82.90
2018-12-08T02:00:29.361Z,83.00
2018-12-08T02:02:56.874Z,83.20
2018-12-08T02:05:24.526Z,83.30
2018-12-08T02:07:52.438Z,83.40
2018-12-08T02:10:19.999Z,83.40
2018-12-08T02:12:47.556Z,83.30
2018-12-08T02:15:15.411Z,83.40
2018-12-08T02:17:44.734Z,83.50
2018-12-08T02:20:12.757Z,83.20
2018-12-08T02:22:40.377Z,82.90
2018-12-08T02:25:08.331Z,83.70
2018-12-08T02:27:35.736Z,82.90
2018-12-08T02:30:04.323Z,82.90
2018-12-08T02:32:32.332Z,82.60
2018-12-08T02:35:01.412Z,82.60
2018-12-08T02:37:29.231Z,82.30
2018-12-08T02:39:56.728Z,82.30
2018-12-08T02:42:24.331Z,82.40
2018-12-08T02:44:51.877Z,82.10
2018-12-08T02:47:19.540Z,82.00
2018-12-08T02:49:47.127Z,82.00
2018-12-08T02:52:14.674Z,81.70
2018-12-08T02:54:42.337Z,81.80
2018-12-08T02:57:09.943Z,82.00
2018-12-08T02:59:37.434Z,82.00
2018-12-08T03:02:05.752Z,82.00
2018-12-08T03:04:33.398Z,82.00
2018-12-08T03:07:00.966Z,81.80
2018-12-08T03:09:28.563Z,81.80
2018-12-08T03:11:56.151Z,81.80
2018-12-08T03:14:23.675Z,81.80
2018-12-08T03:16:51.254Z,81.70
2018-12-08T03:19:18.980Z,81.70
2018-12-08T03:21:46.537Z,81.70
2018-12-08T03:24:14.063Z,81.60
2018-12-08T03:26:41.655Z,81.60
2018-12-08T03:29:09.239Z,81.60
2018-12-08T03:31:36.756Z,81.60
2018-12-08T03:34:04.259Z,81.80
2018-12-08T03:36:31.821Z,81.80
2018-12-08T03:38:59.325Z,81.90
2018-12-08T03:41:26.909Z,82.00
2018-12-08T03:43:54.409Z,82.00
2018-12-08T03:46:21.907Z,82.00
2018-12-08T03:48:49.548Z,81.90
2018-12-08T03:51:17.223Z,81.80
2018-12-08T03:53:44.784Z,81.80
2018-12-08T03:56:12.415Z,81.50
2018-12-08T03:58:39.961Z,81.60
2018-12-08T04:01:07.572Z,81.50
2018-12-08T04:03:35.105Z,81.60
2018-12-08T04:06:02.770Z,81.40
2018-12-08T04:08:30.294Z,81.50
2018-12-08T04:10:57.810Z,81.20
2018-12-08T04:13:25.471Z,81.20
2018-12-08T04:15:53.267Z,81.20
2018-12-08T04:18:20.898Z,81.10
2018-12-08T04:20:48.370Z,81.20
2018-12-08T04:23:15.858Z,80.80
2018-12-08T04:25:43.497Z,80.60
2018-12-08T04:28:11.023Z,80.40
2018-12-08T04:30:38.453Z,80.40
2018-12-08T04:33:05.995Z,80.30
2018-12-08T04:35:33.419Z,80.40
2018-12-08T04:38:00.859Z,80.20
2018-12-08T04:40:28.418Z,80.20
2018-12-08T04:42:55.955Z,80.20
2018-12-08T04:45:23.639Z,80.20
2018-12-08T04:47:51.335Z,80.30
2018-12-08T04:50:18.887Z,80.60
2018-12-08T04:52:46.307Z,80.90
2018-12-08T04:55:13.862Z,80.90
2018-12-08T04:57:41.411Z,80.80
2018-12-08T05:00:09.002Z,81.00
2018-12-08T05:02:36.504Z,81.00
2018-12-08T05:05:04.275Z,81.00
2018-12-08T05:07:31.785Z,81.20
2018-12-08T05:09:59.274Z,81.20
2018-12-08T05:12:26.791Z,81.20
2018-12-08T05:14:54.471Z,81.30
2018-12-08T05:17:21.977Z,81.40
2018-12-08T05:19:49.491Z,81.50
2018-12-08T05:22:16.923Z,82.00
2018-12-08T05:24:44.493Z,82.40
2018-12-08T05:27:12.047Z,82.70
2018-12-08T05:29:39.563Z,83.80
2018-12-08T05:32:07.179Z,84.30
2018-12-08T05:34:34.667Z,85.00
2018-12-08T05:37:02.187Z,85.10
2018-12-08T05:39:29.903Z,85.10
2018-12-08T05:41:57.354Z,84.80
2018-12-08T05:44:24.810Z,84.40
2018-12-08T05:46:52.296Z,84.60
2018-12-08T05:49:22.955Z,84.50
2018-12-08T05:51:50.454Z,84.30
2018-12-08T05:54:18.277Z,84.30
2018-12-08T05:56:45.844Z,84.80
2018-12-08T05:59:13.448Z,84.50
2018-12-08T06:01:40.980Z,84.30
2018-12-08T06:04:08.474Z,84.40
2018-12-08T06:06:36.065Z,84.10
2018-12-08T06:09:05.429Z,84.20
2018-12-08T06:11:32.972Z,84.00
2018-12-08T06:14:00.508Z,84.10
2018-12-08T06:16:28.124Z,84.10
2018-12-08T06:18:55.611Z,83.40
2018-12-08T06:21:34.340Z,83.50
2018-12-08T06:24:02.129Z,83.30
2018-12-08T06:26:30.173Z,83.50
2018-12-08T06:28:57.811Z,83.40
2018-12-08T06:31:25.283Z,83.20
2018-12-08T06:33:53.005Z,82.90
2018-12-08T06:36:20.493Z,82.90
2018-12-08T06:38:48.171Z,83.90
2018-12-08T06:41:16.137Z,82.90
2018-12-08T06:43:43.595Z,83.00
2018-12-08T06:46:10.981Z,83.20
2018-12-08T06:48:38.516Z,83.30
2018-12-08T06:51:06.017Z,83.60
2018-12-08T06:53:33.623Z,83.70
2018-12-08T06:56:01.279Z,83.90
2018-12-08T06:58:28.795Z,84.00
2018-12-08T07:00:56.412Z,84.00
2018-12-08T07:03:23.944Z,84.30
2018-12-08T07:05:51.926Z,84.40
2018-12-08T07:08:19.628Z,84.60
2018-12-08T07:10:47.240Z,84.70
2018-12-08T07:13:15.048Z,85.00
2018-12-08T07:15:42.544Z,86.10
2018-12-08T07:18:10.108Z,85.50
2018-12-08T07:20:37.504Z,85.60
2018-12-08T07:23:05.051Z,85.60
2018-12-08T07:25:32.493Z,85.70
2018-12-08T07:27:59.995Z,85.90
2018-12-08T07:30:27.710Z,86.90
2018-12-08T07:32:55.251Z,88.20
2018-12-08T07:35:23.160Z,89.50
2018-12-08T07:37:50.670Z,90.20
2018-12-08T07:40:18.233Z,90.40
2018-12-08T07:42:45.846Z,90.70
2018-12-08T07:45:15.147Z,90.80
2018-12-08T07:47:42.899Z,90.80
2018-12-08T07:50:10.431Z,90.80
2018-12-08T07:52:37.991Z,90.90
2018-12-08T07:55:06.905Z,91.10
2018-12-08T07:57:34.581Z,91.00
2018-12-08T08:00:02.201Z,91.10
2018-12-08T08:02:29.961Z,90.90
2018-12-08T08:04:57.483Z,90.80
2018-12-08T08:07:25.189Z,90.80
2018-12-08T08:09:53.017Z,90.70
2018-12-08T08:12:20.557Z,90.60
2018-12-08T08:14:48.088Z,90.20
2018-12-08T08:17:15.888Z,90.30
2018-12-08T08:19:43.516Z,90.00
2018-12-08T08:22:11.099Z,89.80
2018-12-08T08:24:38.696Z,89.60
2018-12-08T08:27:06.204Z,89.80
2018-12-08T08:29:33.762Z,90.00
2018-12-08T08:32:01.463Z,90.20
2018-12-08T08:34:29.001Z,90.20
2018-12-08T08:36:56.400Z,90.30
2018-12-08T08:39:23.990Z,90.40
2018-12-08T08:41:51.354Z,90.60
2018-12-08T08:44:18.966Z,90.60
2018-12-08T08:46:46.505Z,90.70
2018-12-08T08:49:14.117Z,90.60
2018-12-08T08:51:41.795Z,90.60
2018-12-08T08:54:09.484Z,90.60
2018-12-08T08:56:37.119Z,90.50
2018-12-08T08:59:04.652Z,90.40
2018-12-08T09:01:32.154Z,90.30
2018-12-08T09:04:00.009Z,90.10
2018-12-08T09:06:27.585Z,90.00
2018-12-08T09:08:55.131Z,89.20
2018-12-08T09:11:22.847Z,88.10
2018-12-08T09:13:50.388Z,86.90
2018-12-08T09:16:17.927Z,86.50
2018-12-08T09:18:45.928Z,86.10
2018-12-08T09:21:13.446Z,86.20
2018-12-08T09:23:41.067Z,86.20
2018-12-08T09:26:08.720Z,86.10
2018-12-08T09:28:36.295Z,85.80
2018-12-08T09:31:03.893Z,85.80
2018-12-08T09:33:31.431Z,85.60
2018-12-08T09:35:59.146Z,85.20
2018-12-08T09:38:26.698Z,84.70
2018-12-08T09:40:54.339Z,84.60
2018-12-08T09:43:21.934Z,84.50
2018-12-08T09:45:49.492Z,85.10
2018-12-08T09:48:17.158Z,85.70
2018-12-08T09:50:44.568Z,86.10
2018-12-08T09:53:16.617Z,86.30
2018-12-08T09:55:44.449Z,86.70
2018-12-08T09:58:11.972Z,87.00
2018-12-08T10:00:40.244Z,87.00
2018-12-08T10:03:08.113Z,86.60
2018-12-08T10:05:36.015Z,86.40
2018-12-08T10:08:03.780Z,86.30
2018-12-08T10:10:31.453Z,86.40
2018-12-08T10:12:59.075Z,86.80
2018-12-08T10:15:26.582Z,87.50
2018-12-08T10:17:54.116Z,88.00
2018-12-08T10:20:21.991Z,88.40
2018-12-08T10:22:49.484Z,88.70
2018-12-08T10:25:17.835Z,88.60
2018-12-08T10:27:45.398Z,88.30
2018-12-08T10:30:13.323Z,88.00
2018-12-08T10:32:40.893Z,87.40
2018-12-08T10:35:10.977Z,86.80
2018-12-08T10:37:39.545Z,86.60
2018-12-08T10:40:08.634Z,87.20
2018-12-08T10:42:37.214Z,86.60
2018-12-08T10:45:06.957Z,86.70
2018-12-08T10:47:34.759Z,86.40
2018-12-08T10:50:02.899Z,86.10
2018-12-08T10:52:30.444Z,85.90
2018-12-08T10:54:58.087Z,85.80
2018-12-08T10:57:27.975Z,85.70
2018-12-08T10:59:55.779Z,85.30
2018-12-08T11:02:28.958Z,85.40
2018-12-08T11:04:57.066Z,85.40
2018-12-08T11:07:24.713Z,85.00
2018-12-08T11:09:52.178Z,84.80
2018-12-08T11:12:19.825Z,84.50
2018-12-08T11:14:47.590Z,83.70
2018-12-08T11:17:15.246Z,83.50
2018-12-08T11:19:42.945Z,83.20
2018-12-08T11:22:10.576Z,82.80
2018-12-08T11:24:38.418Z,82.70
2018-12-08T11:27:05.980Z,83.20
2018-12-08T11:29:33.694Z,82.20
2018-12-08T11:32:01.290Z,81.90
2018-12-08T11:34:28.968Z,81.70
2018-12-08T11:36:56.563Z,80.70
2018-12-08T11:39:24.390Z,80.00
2018-12-08T11:41:52.585Z,80.10
2018-12-08T11:44:20.534Z,79.40
2018-12-08T11:46:48.403Z,79.20
2018-12-08T11:49:15.963Z,80.10
2018-12-08T11:51:43.547Z,79.20
2018-12-08T11:54:11.330Z,78.90
2018-12-08T11:56:39.210Z,79.10
2018-12-08T11:59:08.644Z,79.90
2018-12-08T12:01:36.155Z,80.70
2018-12-08T12:04:03.804Z,81.20
2018-12-08T12:06:31.376Z,81.80
2018-12-08T12:08:58.946Z,82.20
2018-12-08T12:11:26.563Z,82.10
2018-12-08T12:13:54.532Z,81.50
2018-12-08T12:16:22.104Z,81.70
2018-12-08T12:18:49.712Z,81.50
2018-12-08T12:21:17.410Z,81.60
2018-12-08T12:23:45.024Z,81.40
2018-12-08T12:26:12.558Z,81.50
2018-12-08T12:28:40.128Z,81.40
2018-12-08T12:31:07.904Z,81.40
2018-12-08T12:33:35.360Z,81.50
2018-12-08T12:36:03.324Z,81.50
2018-12-08T12:38:30.945Z,81.70
2018-12-08T12:40:58.649Z,82.00
2018-12-08T12:43:27.214Z,82.20
2018-12-08T12:45:54.840Z,82.50
2018-12-08T12:48:22.411Z,82.70
2018-12-08T12:50:50.033Z,82.90
2018-12-08T12:53:17.569Z,82.90
2018-12-08T12:55:45.069Z,83.00
2018-12-08T12:58:12.600Z,83.10
2018-12-08T13:00:40.187Z,83.00
2018-12-08T13:03:07.921Z,82.80
2018-12-08T13:05:35.438Z,82.20
2018-12-08T13:08:02.999Z,81.20
2018-12-08T13:10:30.603Z,80.90
2018-12-08T13:12:59.065Z,80.40
2018-12-08T13:15:26.576Z,80.20
2018-12-08T13:17:54.787Z,80.00
2018-12-08T13:20:22.332Z,80.00
2018-12-08T13:22:49.844Z,79.90
2018-12-08T13:25:26.184Z,80.00
2018-12-08T13:27:53.866Z,80.00
2018-12-08T13:30:21.616Z,80.00
2018-12-08T13:32:49.617Z,80.20
2018-12-08T13:35:28.764Z,80.20
2018-12-08T13:37:56.416Z,79.50
2018-12-08T13:40:25.722Z,79.40
2018-12-08T13:42:53.734Z,78.30
2018-12-08T13:45:22.016Z,77.40
2018-12-08T13:47:49.650Z,77.80
2018-12-08T13:50:17.200Z,77.60
2018-12-08T13:52:44.841Z,77.00
2018-12-08T13:55:12.826Z,76.70
2018-12-08T13:57:40.408Z,76.80
2018-12-08T14:00:08.892Z,76.80
2018-12-08T14:02:36.572Z,76.80
2018-12-08T14:05:04.859Z,76.90
2018-12-08T14:07:32.407Z,76.70
2018-12-08T14:09:59.968Z,76.60
2018-12-08T14:12:27.528Z,76.80
2018-12-08T14:14:55.261Z,76.80
2018-12-08T14:17:22.872Z,76.90
2018-12-08T14:19:50.436Z,76.90
2018-12-08T14:22:18.020Z,76.80
2018-12-08T14:24:45.973Z,77.00
2018-12-08T14:27:13.680Z,76.80
2018-12-08T14:29:41.406Z,77.00
2018-12-08T14:32:09.242Z,76.90
2018-12-08T14:34:37.308Z,77.00
2018-12-08T14:37:05.105Z,77.00
2018-12-08T14:39:33.604Z,77.20
2018-12-08T14:42:02.410Z,77.40
2018-12-08T14:44:29.993Z,77.40
2018-12-08T14:46:57.593Z,78.40
2018-12-08T14:49:25.306Z,77.70
2018-12-08T14:51:52.843Z,77.50
2018-12-08T14:54:20.331Z,77.70
2018-12-08T14:56:48.017Z,77.50
2018-12-08T14:59:16.139Z,77.10
2018-12-08T15:01:43.707Z,76.70
2018-12-08T15:04:11.790Z,76.00
2018-12-08T15:06:39.313Z,75.50
2018-12-08T15:09:07.217Z,75.40
2018-12-08T15:11:34.757Z,75.40
2018-12-08T15:14:03.461Z,75.40
2018-12-08T15:16:31.083Z,75.40
2018-12-08T15:18:58.639Z,75.40
2018-12-08T15:21:26.233Z,76.20
2018-12-08T15:23:53.645Z,75.60
2018-12-08T15:26:21.142Z,75.60
2018-12-08T15:28:48.715Z,75.70
2018-12-08T15:31:16.273Z,75.40
2018-12-08T15:33:43.835Z,75.30
2018-12-08T15:36:11.521Z,75.30
2018-12-08T15:38:39.089Z,75.40
2018-12-08T15:41:06.640Z,75.50
2018-12-08T15:43:34.460Z,75.50
2018-12-08T15:46:02.247Z,75.70
2018-12-08T15:48:29.829Z,75.80
2018-12-08T15:50:57.369Z,75.80
2018-12-08T15:53:25.215Z,75.80
2018-12-08T15:55:52.865Z,76.10
2018-12-08T15:58:20.431Z,76.20
2018-12-08T16:00:48.009Z,76.20
2018-12-08T16:03:15.551Z,76.40
2018-12-08T16:05:43.341Z,76.50
2018-12-08T16:08:10.917Z,76.60
2018-12-08T16:10:38.478Z,76.70
2018-12-08T16:13:05.879Z,76.90
2018-12-08T16:15:33.502Z,76.90
2018-12-08T16:18:01.239Z,76.90
2018-12-08T16:20:28.824Z,76.90
2018-12-08T16:22:56.398Z,77.00
2018-12-08T16:25:24.046Z,77.00
2018-12-08T16:27:51.708Z,77.00
2018-12-08T16:30:19.308Z,77.20
2018-12-08T16:32:46.899Z,77.20
2018-12-08T16:35:14.441Z,77.30
2018-12-08T16:37:42.337Z,77.50
2018-12-08T16:40:10.003Z,78.00
2018-12-08T16:42:37.587Z,78.60
2018-12-08T16:45:07.283Z,79.30
2018-12-08T16:47:34.928Z,79.90
2018-12-08T16:50:02.793Z,80.40
2018-12-08T16:52:30.471Z,81.00
2018-12-08T16:54:58.139Z,81.30
2018-12-08T16:57:25.883Z,81.80
2018-12-08T16:59:53.443Z,81.80
2018-12-08T17:02:21.043Z,81.80
2018-12-08T17:04:48.773Z,81.90
2018-12-08T17:07:16.628Z,82.10
2018-12-08T17:09:44.488Z,82.40
2018-12-08T17:12:12.406Z,82.80
2018-12-08T17:14:40.258Z,83.20
2018-12-08T17:17:07.815Z,83.80
2018-12-08T17:19:35.486Z,84.30
2018-12-08T17:22:03.299Z,84.80
2018-12-08T17:24:30.860Z,85.00
2018-12-08T17:26:58.365Z,85.20
2018-12-08T17:29:26.051Z,85.60
2018-12-08T17:31:53.641Z,86.50
2018-12-08T17:34:21.181Z,88.30
2018-12-08T17:36:48.699Z,88.20
2018-12-08T17:39:16.459Z,89.00
2018-12-08T17:41:44.232Z,89.00
2018-12-08T17:44:11.827Z,89.30
2018-12-08T17:46:39.416Z,89.20
2018-12-08T17:49:07.048Z,89.40
2018-12-08T17:51:34.606Z,89.30
2018-12-08T17:54:02.778Z,89.20
2018-12-08T17:56:30.755Z,89.10
2018-12-08T17:58:58.396Z,89.00
2018-12-08T18:01:26.037Z,89.10
2018-12-08T18:03:53.690Z,89.00
2018-12-08T18:06:21.416Z,88.90
2018-12-08T18:08:49.160Z,88.70
2018-12-08T18:11:16.792Z,88.60
2018-12-08T18:13:44.688Z,88.60
2018-12-08T18:16:12.275Z,88.70
2018-12-08T18:18:39.910Z,89.10
2018-12-08T18:21:07.576Z,89.30
2018-12-08T18:23:35.173Z,89.30
2018-12-08T18:26:02.631Z,90.20
2018-12-08T18:28:30.330Z,89.50
2018-12-08T18:30:57.901Z,89.20
2018-12-08T18:33:25.586Z,89.00
2018-12-08T18:35:53.116Z,88.90
2018-12-08T18:38:20.678Z,89.10
2018-12-08T18:40:48.364Z,89.90
2018-12-08T18:43:16.224Z,90.50
2018-12-08T18:45:43.814Z,90.80
2018-12-08T18:48:11.390Z,91.00
2018-12-08T18:50:39.020Z,91.20
2018-12-08T18:53:06.727Z,91.50
2018-12-08T18:55:34.311Z,91.80
2018-12-08T18:58:02.084Z,92.20
2018-12-08T19:00:30.722Z,92.70
2018-12-08T19:02:58.163Z,93.40
2018-12-08T19:05:25.867Z,93.50
2018-12-08T19:07:54.642Z,93.80
2018-12-08T19:10:22.392Z,94.20
2018-12-08T19:12:50.018Z,94.40
2018-12-08T19:15:17.819Z,94.50
2018-12-08T19:17:45.378Z,94.50
2018-12-08T19:20:13.076Z,94.80
2018-12-08T19:22:40.680Z,94.90
2018-12-08T19:25:08.325Z,95.00
2018-12-08T19:27:36.657Z,95.10
2018-12-08T19:30:05.819Z,95.10
2018-12-08T19:32:33.369Z,95.20
2018-12-08T19:35:01.035Z,95.20
2018-12-08T19:37:28.639Z,95.30
2018-12-08T19:39:56.483Z,95.30
2018-12-08T19:42:24.205Z,95.30
2018-12-08T19:44:51.737Z,95.20
2018-12-08T19:47:19.283Z,95.10
2018-12-08T19:49:46.895Z,95.00
2018-12-08T19:52:14.675Z,94.80
2018-12-08T19:54:42.283Z,94.70
2018-12-08T19:57:10.217Z,94.70
2018-12-08T19:59:38.195Z,94.70
2018-12-08T20:02:05.820Z,95.00
2018-12-08T20:04:33.318Z,94.50
2018-12-08T20:07:00.958Z,94.40
2018-12-08T20:09:28.494Z,94.30
2018-12-08T20:11:56.308Z,94.30
2018-12-08T20:14:23.928Z,94.40
2018-12-08T20:16:51.483Z,94.80
2018-12-08T20:19:19.046Z,94.60
2018-12-08T20:21:46.596Z,94.70
2018-12-08T20:24:14.465Z,94.90
2018-12-08T20:26:42.318Z,95.20
2018-12-08T20:29:10.015Z,95.50
2018-12-08T20:31:37.594Z,95.80
2018-12-08T20:34:05.253Z,95.90
2018-12-08T20:36:32.926Z,95.90
2018-12-08T20:39:00.439Z,96.00
2018-12-08T20:41:28.001Z,96.20
2018-12-08T20:43:55.563Z,96.20
2018-12-08T20:46:23.079Z,96.40
2018-12-08T20:48:50.615Z,96.20
2018-12-08T20:51:18.303Z,96.20
2018-12-08T20:53:45.845Z,96.30
2018-12-08T20:56:13.365Z,96.10
2018-12-08T20:58:41.506Z,95.90
2018-12-08T21:01:09.041Z,95.40
2018-12-08T21:03:36.682Z,95.00
2018-12-08T21:06:05.026Z,94.00
2018-12-08T21:08:32.484Z,93.70
2018-12-08T21:11:00.053Z,93.60
2018-12-08T21:13:27.739Z,93.50
2018-12-08T21:15:55.509Z,93.00
2018-12-08T21:18:23.152Z,92.70
2018-12-08T21:20:50.821Z,92.80
2018-12-08T21:23:18.314Z,93.20
2018-12-08T21:25:46.193Z,93.60
2018-12-08T21:28:13.608Z,94.20
2018-12-08T21:30:41.195Z,94.60
2018-12-08T21:33:08.859Z,94.90
2018-12-08T21:35:36.493Z,95.10
2018-12-08T21:38:04.053Z,94.90
2018-12-08T21:40:31.662Z,94.90
2018-12-08T21:42:59.391Z,94.90
2018-12-08T21:45:27.744Z,94.70
2018-12-08T21:47:55.666Z,94.30
2018-12-08T21:50:23.547Z,94.10
2018-12-08T21:52:51.001Z,93.70
2018-12-08T21:55:18.524Z,93.80
2018-12-08T21:57:46.127Z,93.50
2018-12-08T22:00:13.721Z,93.40
2018-12-08T22:02:41.527Z,93.10
2018-12-08T22:05:09.091Z,92.90
2018-12-08T22:07:36.624Z,92.80
2018-12-08T22:10:05.554Z,92.60
2018-12-08T22:12:33.264Z,92.40
2018-12-08T22:15:05.750Z,92.20
2018-12-08T22:17:33.240Z,92.10
2018-12-08T22:20:00.823Z,91.90
2018-12-08T22:22:28.393Z,91.80
2018-12-08T22:24:56.046Z,91.70
2018-12-08T22:27:26.636Z,91.50
2018-12-08T22:29:54.281Z,91.40
2018-12-08T22:32:21.826Z,91.20
2018-12-08T22:34:49.462Z,91.20
2018-12-08T22:37:17.195Z,91.10
2018-12-08T22:39:44.746Z,91.00
2018-12-08T22:42:12.400Z,91.10
2018-12-08T22:44:40.007Z,90.90
2018-12-08T22:47:07.560Z,90.80
2018-12-08T22:49:35.092Z,90.60
2018-12-08T22:52:02.760Z,90.10
2018-12-08T22:54:30.511Z,90.40
2018-12-08T22:56:58.095Z,90.30
2018-12-08T22:59:25.665Z,90.20
2018-12-08T23:01:53.698Z,90.20
2018-12-08T23:04:21.252Z,90.20
2018-12-08T23:07:02.860Z,90.10
2018-12-08T23:09:30.620Z,90.00
2018-12-08T23:11:58.124Z,89.70
2018-12-08T23:14:25.740Z,89.50
2018-12-08T23:16:53.392Z,89.50
2018-12-08T23:19:20.924Z,89.80
2018-12-08T23:21:48.798Z,89.80
2018-12-08T23:24:16.313Z,89.90
2018-12-08T23:26:44.840Z,90.00
2018-12-08T23:29:12.387Z,89.20
2018-12-08T23:31:40.026Z,88.60
2018-12-08T23:34:07.723Z,88.00
2018-12-08T23:36:35.604Z,87.70
2018-12-08T23:39:04.815Z,87.30
2018-12-08T23:41:32.320Z,86.60
2018-12-08T23:44:00.011Z,86.00
2018-12-08T23:46:27.573Z,85.80
2018-12-08T23:48:54.999Z,85.40
2018-12-08T23:51:22.737Z,85.00
2018-12-08T23:53:50.236Z,84.70
2018-12-08T23:56:17.867Z,83.70
2018-12-08T23:58:45.403Z,83.00
